createdAt,value
2023-01-11T00:00:36.959Z,70.2
2023-01-11T00:02:36.304Z,70.1
2023-01-11T00:04:35.699Z,70.9
2023-01-11T00:06:35.422Z,71.2
2023-01-11T00:08:34.857Z,71.2
2023-01-11T00:10:35.106Z,71.2
2023-01-11T00:12:34.128Z,70.8
2023-01-11T00:14:33.756Z,70.3
2023-01-11T00:16:33.297Z,70.3
2023-01-11T00:18:33.064Z,70.3
2023-01-11T00:20:32.873Z,70.3
2023-01-11T00:22:32.112Z,70.5
2023-01-11T00:24:31.581Z,70.5
2023-01-11T00:26:31.767Z,70.8
2023-01-11T00:28:31.162Z,70.8
2023-01-11T00:30:30.487Z,70.8
2023-01-11T00:32:29.995Z,71
2023-01-11T00:34:29.740Z,71.6
2023-01-11T00:36:29.202Z,70.9
2023-01-11T00:38:28.789Z,70.9
2023-01-11T00:40:28.421Z,70.3
2023-01-11T00:42:28.028Z,69.8
2023-01-11T00:44:27.640Z,69.8
2023-01-11T00:46:27.270Z,69.8
2023-01-11T00:48:26.878Z,69.8
2023-01-11T00:50:28.531Z,69.8
2023-01-11T00:52:26.151Z,69.8
2023-01-11T00:54:25.657Z,70.8
2023-01-11T00:56:25.207Z,70.8
2023-01-11T00:58:24.903Z,70.1
2023-01-11T01:00:25.011Z,69.4
2023-01-11T01:02:24.501Z,68.8
2023-01-11T01:04:23.694Z,70.3
2023-01-11T01:06:23.327Z,69.7
2023-01-11T01:08:22.871Z,69.7
2023-01-11T01:10:22.691Z,70.4
2023-01-11T01:12:22.127Z,70.7
2023-01-11T01:14:22.081Z,70.7
2023-01-11T01:16:21.366Z,70.7
2023-01-11T01:18:20.963Z,70.7
2023-01-11T01:20:20.885Z,70.7
2023-01-11T01:22:20.107Z,70.3
2023-01-11T01:24:19.942Z,70.3
2023-01-11T01:26:20.283Z,70.5
2023-01-11T01:28:18.969Z,70.5
2023-01-11T01:30:18.599Z,69.9
2023-01-11T01:32:18.167Z,69.9
2023-01-11T01:34:18.105Z,69.9
2023-01-11T01:36:17.434Z,71.4
2023-01-11T01:38:17.164Z,69.5
2023-01-11T01:40:16.851Z,69.5
2023-01-11T01:42:18.512Z,69.2
2023-01-11T01:44:44.975Z,69.2
2023-01-11T01:46:16.141Z,69
2023-01-11T01:48:19.535Z,69.5
2023-01-11T01:50:19.848Z,69.5
2023-01-11T01:52:14.217Z,69.5
2023-01-11T01:54:18.200Z,70.9
2023-01-11T01:56:17.667Z,70.2
2023-01-11T01:58:18.090Z,70.2
2023-01-11T02:00:13.609Z,70.2
2023-01-11T02:02:12.353Z,70.5
2023-01-11T02:04:18.375Z,70.2
2023-01-11T02:06:11.545Z,70.2
2023-01-11T02:08:18.933Z,69.3
2023-01-11T02:10:14.086Z,69.3
2023-01-11T02:12:10.909Z,70.1
2023-01-11T02:14:14.924Z,70.1
2023-01-11T02:16:09.748Z,70.1
2023-01-11T02:18:11.795Z,70.1
2023-01-11T02:20:28.747Z,70.1
2023-01-11T02:22:30.274Z,69.8
2023-01-11T02:24:36.076Z,69.8
2023-01-11T02:26:30.402Z,69.8
2023-01-11T02:28:11.502Z,69.8
2023-01-11T02:30:19.923Z,70.3
2023-01-11T02:32:18.647Z,70
2023-01-11T02:34:22.959Z,69.6
2023-01-11T02:36:17.587Z,69.6
2023-01-11T02:38:10.568Z,69
2023-01-11T02:40:16.480Z,69.5
2023-01-11T02:42:10.833Z,71.6
2023-01-11T02:44:13.412Z,70.5
2023-01-11T02:46:11.183Z,69.8
2023-01-11T02:48:13.423Z,69.8
2023-01-11T02:50:12.511Z,69.8
2023-01-11T02:52:09.360Z,69.8
2023-01-11T02:54:07.253Z,69.8
2023-01-11T02:56:09.146Z,70.5
2023-01-11T02:58:05.586Z,70.5
2023-01-11T03:00:02.248Z,70.5
2023-01-11T03:02:01.115Z,70.2
2023-01-11T03:04:00.591Z,70.2
2023-01-11T03:06:04.861Z,70.7
2023-01-11T03:08:07.676Z,70.7
2023-01-11T03:10:13.018Z,70.7
2023-01-11T03:12:11.724Z,70.6
2023-01-11T03:14:09.515Z,70.7
2023-01-11T03:16:17.131Z,71.3
2023-01-11T03:18:11.143Z,70.8
2023-01-11T03:20:06.529Z,70.8
2023-01-11T03:22:03.182Z,70.8
2023-01-11T03:24:08.126Z,70.8
2023-01-11T03:26:01.515Z,70.8
2023-01-11T03:28:01.755Z,70.8
2023-01-11T03:30:04.527Z,71.3
2023-01-11T03:32:03.987Z,71
2023-01-11T03:33:59.960Z,71
2023-01-11T03:36:01.699Z,71
2023-01-11T03:37:58.684Z,71
2023-01-11T03:39:59.135Z,71
2023-01-11T03:41:57.017Z,71.8
2023-01-11T03:43:56.316Z,71.3
2023-01-11T03:45:56.044Z,71.8
2023-01-11T03:47:54.323Z,71.8
2023-01-11T03:49:55.553Z,71.2
2023-01-11T03:51:53.576Z,71.2
2023-01-11T03:53:52.546Z,71.2
2023-01-11T03:55:55.258Z,71.2
2023-01-11T03:57:50.595Z,71.2
2023-01-11T03:59:50.261Z,71.2
2023-01-11T04:01:51.833Z,71.2
2023-01-11T04:03:48.708Z,71.8
2023-01-11T04:05:52.764Z,71.8
2023-01-11T04:07:47.848Z,72.5
2023-01-11T04:09:47.493Z,70.9
2023-01-11T04:11:47.153Z,71.5
2023-01-11T04:13:46.699Z,71.5
2023-01-11T04:15:46.322Z,72
2023-01-11T04:17:46.200Z,71.3
2023-01-11T04:19:45.663Z,71.3
2023-01-11T04:21:45.154Z,71.3
2023-01-11T04:23:44.829Z,71.3
2023-01-11T04:25:44.414Z,70.8
2023-01-11T04:27:44.018Z,71.5
2023-01-11T04:29:43.851Z,71.5
2023-01-11T04:31:43.394Z,71.8
2023-01-11T04:33:42.934Z,71.8
2023-01-11T04:35:42.556Z,70.4
2023-01-11T04:37:42.188Z,70.4
2023-01-11T04:39:41.878Z,71.6
2023-01-11T04:41:41.302Z,71.4
2023-01-11T04:43:40.923Z,71.1
2023-01-11T04:45:40.596Z,71.1
2023-01-11T04:47:40.117Z,71.8
2023-01-11T04:49:39.724Z,71.8
2023-01-11T04:51:39.407Z,71.2
2023-01-11T04:53:38.905Z,71.2
2023-01-11T04:55:38.694Z,71.2
2023-01-11T04:57:38.212Z,71.2
2023-01-11T04:59:37.950Z,71.2
2023-01-11T05:01:37.383Z,71.6
2023-01-11T05:03:37.330Z,71.6
2023-01-11T05:05:36.636Z,72.6
2023-01-11T05:07:36.211Z,71.9
2023-01-11T05:09:36.179Z,71.9
2023-01-11T05:11:35.439Z,71.1
2023-01-11T05:13:35.171Z,71.1
2023-01-11T05:15:34.730Z,71.1
2023-01-11T05:17:34.231Z,71.1
2023-01-11T05:19:33.952Z,71.1
2023-01-11T05:21:35.455Z,71.2
2023-01-11T05:23:33.836Z,71.2
2023-01-11T05:25:32.758Z,71.2
2023-01-11T05:27:32.891Z,71.2
2023-01-11T05:29:31.980Z,71.2
2023-01-11T05:31:32.642Z,70.7
2023-01-11T05:33:31.814Z,70.7
2023-01-11T05:35:30.789Z,70.2
2023-01-11T05:37:30.506Z,71
2023-01-11T05:39:30.169Z,70.2
2023-01-11T05:41:29.687Z,70.8
2023-01-11T05:43:30.783Z,70.8
2023-01-11T05:45:29.053Z,70.8
2023-01-11T05:47:28.584Z,70.8
2023-01-11T05:49:28.177Z,70.8
2023-01-11T05:51:28.694Z,70.8
2023-01-11T05:53:27.429Z,70.8
2023-01-11T05:55:27.015Z,70.6
2023-01-11T05:57:26.633Z,70.6
2023-01-11T05:59:26.305Z,70.6
2023-01-11T06:01:26.145Z,70.5
2023-01-11T06:03:26.575Z,70.5
2023-01-11T06:05:25.193Z,70.5
2023-01-11T06:07:24.811Z,70.5
2023-01-11T06:09:24.345Z,70.5
2023-01-11T06:11:24.403Z,70.6
2023-01-11T06:13:24.927Z,71.2
2023-01-11T06:15:23.341Z,71.2
2023-01-11T06:17:22.835Z,71.2
2023-01-11T06:19:22.452Z,72
2023-01-11T06:21:22.172Z,70.6
2023-01-11T06:23:22.845Z,71.2
2023-01-11T06:25:21.195Z,71.2
2023-01-11T06:27:20.836Z,71.2
2023-01-11T06:29:20.458Z,71.2
2023-01-11T06:31:20.249Z,70.9
2023-01-11T06:33:20.589Z,70.9
2023-01-11T06:35:19.892Z,70.9
2023-01-11T06:37:18.901Z,70.9
2023-01-11T06:39:19.355Z,71.6
2023-01-11T06:41:18.259Z,71.1
2023-01-11T06:43:17.767Z,71
2023-01-11T06:45:17.450Z,71
2023-01-11T06:47:17.077Z,71.4
2023-01-11T06:49:16.636Z,70.8
2023-01-11T06:51:16.607Z,71.6
2023-01-11T06:53:16.347Z,71.6
2023-01-11T06:55:15.547Z,71.6
2023-01-11T06:57:15.121Z,71.6
2023-01-11T06:59:15.075Z,71.6
2023-01-11T07:01:18.856Z,71.7
2023-01-11T07:03:14.044Z,72.4
2023-01-11T07:05:14.396Z,72.4
2023-01-11T07:07:13.303Z,71.6
2023-01-11T07:09:12.791Z,71.6
2023-01-11T07:11:12.667Z,72.4
2023-01-11T07:13:12.474Z,72.4
2023-01-11T07:15:11.817Z,73.1
2023-01-11T07:17:11.555Z,73.1
2023-01-11T07:19:11.208Z,72.3
2023-01-11T07:21:10.636Z,72.9
2023-01-11T07:23:10.371Z,72.9
2023-01-11T07:25:09.904Z,72.9
2023-01-11T07:27:09.588Z,73
2023-01-11T07:29:09.837Z,73
2023-01-11T07:31:08.957Z,73.3
2023-01-11T07:33:09.327Z,73.3
2023-01-11T07:35:08.900Z,71.8
2023-01-11T07:37:08.026Z,72.6
2023-01-11T07:39:07.489Z,72
2023-01-11T07:41:07.024Z,71.9
2023-01-11T07:43:09.528Z,72.7
2023-01-11T07:45:07.472Z,72.7
2023-01-11T07:47:06.097Z,72.1
2023-01-11T07:49:05.610Z,72.8
2023-01-11T07:51:05.226Z,72.9
2023-01-11T07:53:05.810Z,72.9
2023-01-11T07:55:05.074Z,72.9
2023-01-11T07:57:04.150Z,72.9
2023-01-11T07:59:03.772Z,72.2
2023-01-11T08:01:03.509Z,72.8
2023-01-11T08:03:03.356Z,72.8
2023-01-11T08:05:03.392Z,72.8
2023-01-11T08:07:02.598Z,72.8
2023-01-11T08:09:02.029Z,72.8
2023-01-11T08:11:02.368Z,73
2023-01-11T08:13:01.408Z,73.3
2023-01-11T08:15:00.961Z,73.3
2023-01-11T08:17:00.769Z,74
2023-01-11T08:19:00.613Z,74
2023-01-11T08:20:59.876Z,74.3
2023-01-11T08:23:03.254Z,74.3
2023-01-11T08:24:59.157Z,74.3
2023-01-11T08:26:58.940Z,74.3
2023-01-11T08:28:58.645Z,74.3
2023-01-11T08:30:58.202Z,73.6
2023-01-11T08:33:00.019Z,73.6
2023-01-11T08:34:57.394Z,75.1
2023-01-11T08:36:57.211Z,74.1
2023-01-11T08:38:57.436Z,74.1
2023-01-11T08:40:56.366Z,73.2
2023-01-11T08:42:56.707Z,73.2
2023-01-11T08:44:55.996Z,74
2023-01-11T08:46:55.422Z,74
2023-01-11T08:48:54.939Z,74
2023-01-11T08:50:54.601Z,74.2
2023-01-11T08:52:54.332Z,74.2
2023-01-11T08:54:53.912Z,74.2
2023-01-11T08:56:54.869Z,74.2
2023-01-11T08:58:53.204Z,74.2
2023-01-11T09:00:52.911Z,74.6
2023-01-11T09:02:52.734Z,74
2023-01-11T09:04:52.288Z,73.4
2023-01-11T09:06:51.897Z,73.4
2023-01-11T09:08:51.798Z,73.4
2023-01-11T09:10:51.086Z,73.8
2023-01-11T09:12:51.726Z,73.8
2023-01-11T09:14:50.423Z,74.2
2023-01-11T09:16:50.437Z,74.2
2023-01-11T09:18:49.679Z,74.2
2023-01-11T09:20:50.725Z,74.2
2023-01-11T09:22:52.808Z,74.2
2023-01-11T09:24:48.731Z,74.2
2023-01-11T09:26:48.334Z,73.6
2023-01-11T09:28:48.475Z,74.1
2023-01-11T09:30:47.490Z,73.8
2023-01-11T09:32:48.937Z,73.7
2023-01-11T09:34:46.965Z,73.7
2023-01-11T09:36:46.503Z,73.7
2023-01-11T09:38:46.112Z,73.7
2023-01-11T09:40:58.127Z,73.3
2023-01-11T09:42:49.233Z,73.1
2023-01-11T09:44:50.857Z,73.1
2023-01-11T09:46:49.585Z,73.1
2023-01-11T09:48:47.655Z,73.1
2023-01-11T09:50:47.085Z,73.7
2023-01-11T09:52:46.568Z,73.7
2023-01-11T09:54:43.373Z,73.7
2023-01-11T09:56:48.921Z,73.7
2023-01-11T09:58:55.670Z,73.7
2023-01-11T10:00:52.697Z,72.7
2023-01-11T10:02:56.102Z,72.7
2023-01-11T10:04:59.624Z,73.3
2023-01-11T10:06:50.257Z,72.3
2023-01-11T10:18:22.721Z,72.1
2023-01-11T10:18:39.450Z,72.1
2023-01-11T10:19:25.644Z,72.1
2023-01-11T10:20:43.103Z,72.1
2023-01-11T10:22:41.762Z,72.1
2023-01-11T10:24:43.343Z,72.1
2023-01-11T10:26:38.873Z,72.1
2023-01-11T10:28:49.075Z,71.1
2023-01-11T10:30:42.018Z,71.1
2023-01-11T10:32:41.522Z,71.9
2023-01-11T10:34:42.848Z,71.9
2023-01-11T10:36:49.724Z,71.9
2023-01-11T10:38:43.745Z,71.9
2023-01-11T10:40:44.852Z,72.7
2023-01-11T10:42:44.184Z,71.4
2023-01-11T10:44:40.620Z,72
2023-01-11T10:46:39.373Z,72
2023-01-11T10:48:36.982Z,72
2023-01-11T10:50:41.134Z,72
2023-01-11T10:52:38.304Z,73.1
2023-01-11T10:54:33.523Z,71.7
2023-01-11T10:57:02.455Z,72.7
2023-01-11T10:58:48.095Z,72.7
2023-01-11T11:00:37.757Z,72.7
2023-01-11T11:02:51.220Z,73
2023-01-11T11:04:48.735Z,73
2023-01-11T11:06:38.535Z,73
2023-01-11T11:10:36.693Z,73.4
2023-01-11T11:12:33.359Z,72.8
2023-01-11T11:14:36.071Z,73.7
2023-01-11T11:16:41.573Z,73.1
2023-01-11T11:18:29.000Z,73.1
2023-01-11T11:20:31.618Z,73.1
2023-01-11T11:22:28.362Z,72.8
2023-01-11T11:24:34.380Z,72.8
2023-01-11T11:26:33.835Z,73.6
2023-01-11T11:28:30.420Z,73.6
2023-01-11T11:30:30.998Z,74.2
2023-01-11T11:32:29.398Z,74.2
2023-01-11T11:34:27.672Z,74.7
2023-01-11T11:36:25.899Z,74.7
2023-01-11T11:38:27.844Z,75.2
2023-01-11T11:40:31.918Z,75.2
2023-01-11T11:42:26.092Z,75.5
2023-01-11T11:44:26.759Z,76
2023-01-11T11:46:26.715Z,76
2023-01-11T11:48:25.271Z,76.7
2023-01-11T11:50:43.217Z,76.7
2023-01-11T11:52:23.079Z,76.7
2023-01-11T11:54:27.672Z,76.7
2023-01-11T11:56:28.095Z,76.7
2023-01-11T11:58:26.110Z,77.4
2023-01-11T12:00:26.863Z,76.7
2023-01-11T12:02:26.322Z,76.7
2023-01-11T12:04:24.030Z,77.4
2023-01-11T12:06:23.754Z,76.2
2023-01-11T12:08:22.397Z,76.2
2023-01-11T12:10:22.337Z,78.3
2023-01-11T12:12:23.484Z,76
2023-01-11T12:14:24.901Z,76
2023-01-11T12:16:21.172Z,76
2023-01-11T12:18:25.006Z,76
2023-01-11T12:20:37.815Z,76
2023-01-11T12:22:19.886Z,75.7
2023-01-11T12:24:18.562Z,75.5
2023-01-11T12:26:21.511Z,76.5
2023-01-11T12:28:29.619Z,75.8
2023-01-11T12:30:24.751Z,75.8
2023-01-11T12:32:38.162Z,75.8
2023-01-11T12:34:30.416Z,75.8
2023-01-11T12:36:24.432Z,75.8
2023-01-11T12:38:26.206Z,76.6
2023-01-11T12:40:25.225Z,76.6
2023-01-11T12:42:40.127Z,76.8
2023-01-11T12:44:22.553Z,76.2
2023-01-11T12:46:24.862Z,76.2
2023-01-11T12:48:27.018Z,77.1
2023-01-11T12:50:19.341Z,76.5
2023-01-11T12:52:38.796Z,75.9
2023-01-11T12:54:27.676Z,75.9
2023-01-11T12:56:31.392Z,75.9
2023-01-11T12:58:18.360Z,75.9
2023-01-11T13:00:21.850Z,76
2023-01-11T13:02:25.734Z,76.9
2023-01-11T13:04:26.548Z,76.1
2023-01-11T13:06:15.424Z,76.1
2023-01-11T13:08:16.223Z,76.1
2023-01-11T13:10:23.219Z,76.7
2023-01-11T13:12:17.892Z,76.7
2023-01-11T13:14:28.852Z,76.1
2023-01-11T13:16:16.898Z,76.1
2023-01-11T13:18:17.803Z,76.1
2023-01-11T13:20:19.330Z,76.1
2023-01-11T13:22:15.513Z,75.9
2023-01-11T13:24:13.621Z,77.4
2023-01-11T13:26:17.142Z,76.8
2023-01-11T13:28:23.936Z,76.2
2023-01-11T13:30:12.384Z,76.2
2023-01-11T13:32:12.755Z,76.7
2023-01-11T13:34:13.111Z,76.7
2023-01-11T13:36:22.327Z,76.7
2023-01-11T13:38:15.089Z,78.2
2023-01-11T13:40:14.848Z,78.7
2023-01-11T13:42:11.871Z,78.3
2023-01-11T13:44:12.278Z,79.2
2023-01-11T13:46:09.578Z,79.2
2023-01-11T13:48:14.609Z,79.2
2023-01-11T13:50:09.617Z,79.8
2023-01-11T13:52:10.427Z,80.4
2023-01-11T13:54:11.150Z,81.5
2023-01-11T13:56:10.562Z,81.5
2023-01-11T13:58:08.650Z,82
2023-01-11T14:00:12.297Z,82.6
2023-01-11T14:02:08.831Z,82.9
2023-01-11T14:04:07.921Z,82.9
2023-01-11T14:06:16.123Z,82.9
2023-01-11T14:08:14.501Z,83.5
2023-01-11T14:10:25.379Z,82.4
2023-01-11T14:12:08.330Z,82.9
2023-01-11T14:14:10.765Z,83.6
2023-01-11T14:16:04.804Z,83.4
2023-01-11T14:18:23.789Z,83.4
2023-01-11T14:20:07.074Z,83.4
2023-01-11T14:22:08.476Z,82.7
2023-01-11T14:23:58.004Z,82.7
2023-01-11T14:26:15.031Z,85.2
2023-01-11T14:28:14.972Z,83.8
2023-01-11T14:30:11.383Z,83.8
2023-01-11T14:32:09.541Z,83.6
2023-01-11T14:34:13.243Z,83.6
2023-01-11T14:36:15.367Z,85
2023-01-11T14:38:19.885Z,83.7
2023-01-11T14:40:20.490Z,83.7
2023-01-11T14:42:31.062Z,83.2
2023-01-11T14:44:09.507Z,83.2
2023-01-11T14:46:16.748Z,83.9
2023-01-11T14:48:01.800Z,82.6
2023-01-11T14:50:03.531Z,82.6
2023-01-11T14:51:58.148Z,82.1
2023-01-11T14:53:56.330Z,82.1
2023-01-11T14:55:51.501Z,83.1
2023-01-11T14:58:15.917Z,81.7
2023-01-11T14:59:51.100Z,81.7
2023-01-11T15:02:19.589Z,82.6
2023-01-11T15:03:55.867Z,81
2023-01-11T15:05:54.478Z,81
2023-01-11T15:07:50.175Z,81.2
2023-01-11T15:09:50.982Z,81.2
2023-01-11T15:11:48.857Z,81
2023-01-11T15:13:55.341Z,80.6
2023-01-11T15:15:48.680Z,80.6
2023-01-11T15:17:55.396Z,81.1
2023-01-11T15:19:49.360Z,81.1
2023-01-11T15:21:49.255Z,80.5
2023-01-11T15:23:50.390Z,80.8
2023-01-11T15:25:48.783Z,81.5
2023-01-11T15:27:46.928Z,81.5
2023-01-11T15:29:54.030Z,80.7
2023-01-11T15:32:02.344Z,80.8
2023-01-11T15:33:46.816Z,81.3
2023-01-11T15:36:00.745Z,82.3
2023-01-11T15:37:52.359Z,81.2
2023-01-11T15:39:49.615Z,81.2
2023-01-11T15:41:52.537Z,81
2023-01-11T15:44:03.283Z,81
2023-01-11T15:46:07.158Z,81
2023-01-11T15:48:02.939Z,82
2023-01-11T15:50:04.081Z,80.7
2023-01-11T15:52:01.155Z,80.7
2023-01-11T15:54:03.966Z,80.7
2023-01-11T15:56:05.909Z,80.7
2023-01-11T15:58:02.964Z,80.7
2023-01-11T16:00:05.871Z,81.4
2023-01-11T16:01:58.256Z,80.2
2023-01-11T16:03:53.814Z,80.2
2023-01-11T16:05:43.541Z,80.5
2023-01-11T16:07:46.878Z,80.5
2023-01-11T16:09:59.491Z,80.5
2023-01-11T16:11:44.974Z,81
2023-01-11T16:13:53.950Z,81
2023-01-11T16:15:50.500Z,80.3
2023-01-11T16:17:40.946Z,81
2023-01-11T16:19:37.430Z,81.6
2023-01-11T16:21:40.104Z,81
2023-01-11T16:23:38.389Z,81.5
2023-01-11T16:25:40.917Z,80.9
2023-01-11T16:27:36.905Z,80.9
2023-01-11T16:29:37.000Z,80.9
2023-01-11T16:31:50.633Z,81.5
2023-01-11T16:33:34.890Z,81.4
2023-01-11T16:35:34.611Z,81
2023-01-11T16:37:38.873Z,81
2023-01-11T16:39:34.095Z,80.9
2023-01-11T16:41:43.481Z,80.4
2023-01-11T16:43:35.712Z,81.9
2023-01-11T16:45:40.680Z,80.8
2023-01-11T16:47:32.582Z,80.8
2023-01-11T16:49:32.232Z,82.8
2023-01-11T16:51:32.550Z,82.2
2023-01-11T16:53:33.319Z,80.7
2023-01-11T16:55:34.710Z,81.6
2023-01-11T16:57:35.307Z,81.6
2023-01-11T16:59:30.785Z,81.6
2023-01-11T17:01:50.077Z,81.9
2023-01-11T17:03:32.306Z,82.2
2023-01-11T17:05:29.961Z,81.6
2023-01-11T17:07:30.315Z,82.2
2023-01-11T17:09:29.454Z,81.4
2023-01-11T17:11:33.799Z,81.1
2023-01-11T17:13:50.437Z,81.1
2023-01-11T17:15:36.768Z,81.1
2023-01-11T17:17:33.984Z,82.2
2023-01-11T17:19:29.982Z,82.2
2023-01-11T17:21:29.599Z,82.2
2023-01-11T17:23:27.097Z,81.2
2023-01-11T17:25:37.291Z,81.4
2023-01-11T17:27:29.593Z,81.3
2023-01-11T17:29:30.078Z,81.3
2023-01-11T17:31:28.583Z,81.1
2023-01-11T17:33:27.546Z,81.9
2023-01-11T17:35:26.543Z,81.9
2023-01-11T17:37:24.671Z,83.5
2023-01-11T17:39:28.067Z,81.3
2023-01-11T17:41:27.226Z,83
2023-01-11T17:43:25.325Z,80.7
2023-01-11T17:45:25.337Z,81.6
2023-01-11T17:47:23.795Z,82.1
2023-01-11T17:49:25.289Z,82.3
2023-01-11T17:51:25.248Z,81.9
2023-01-11T17:53:24.096Z,80.8
2023-01-11T17:55:23.944Z,80.4
2023-01-11T17:57:21.242Z,81.5
2023-01-11T17:59:22.382Z,80.3
2023-01-11T18:01:23.653Z,80.5
2023-01-11T18:03:20.513Z,80.2
2023-01-11T18:05:24.034Z,80.2
2023-01-11T18:07:19.611Z,82.3
2023-01-11T18:09:24.314Z,81.9
2023-01-11T18:11:29.065Z,80.8
2023-01-11T18:13:25.388Z,80.2
2023-01-11T18:15:24.933Z,80.2
2023-01-11T18:17:33.870Z,80.2
2023-01-11T18:19:23.963Z,80.2
2023-01-11T18:21:40.138Z,80.1
2023-01-11T18:23:20.725Z,80.1
2023-01-11T18:25:18.756Z,80.1
2023-01-11T18:27:26.348Z,80.1
2023-01-11T18:29:19.109Z,79.6
2023-01-11T18:31:15.703Z,80.1
2023-01-11T18:33:18.462Z,80.1
2023-01-11T18:35:18.504Z,80
2023-01-11T18:37:14.904Z,80
2023-01-11T18:39:14.354Z,80
2023-01-11T18:41:15.909Z,80
2023-01-11T18:43:14.521Z,80
2023-01-11T18:45:13.992Z,80
2023-01-11T18:47:16.201Z,79.3
2023-01-11T18:49:12.897Z,81.1
2023-01-11T18:51:15.962Z,79.1
2023-01-11T18:53:14.459Z,79.8
2023-01-11T18:55:13.157Z,79.8
2023-01-11T18:57:11.673Z,79.8
2023-01-11T18:59:11.240Z,79.6
2023-01-11T19:01:11.215Z,79
2023-01-11T19:03:12.088Z,79
2023-01-11T19:05:12.316Z,79
2023-01-11T19:07:10.470Z,79.5
2023-01-11T19:09:09.661Z,79.5
2023-01-11T19:11:09.215Z,79.5
2023-01-11T19:13:09.522Z,79.5
2023-01-11T19:15:09.646Z,78.5
2023-01-11T19:17:11.780Z,79.1
2023-01-11T19:19:07.884Z,78.9
2023-01-11T19:21:07.595Z,79.8
2023-01-11T19:23:07.605Z,80.3
2023-01-11T19:25:07.721Z,79.5
2023-01-11T19:27:06.822Z,79.5
2023-01-11T19:29:06.385Z,79.5
2023-01-11T19:31:06.621Z,79.2
2023-01-11T19:33:05.667Z,79.2
2023-01-11T19:35:08.204Z,79.2
2023-01-11T19:37:05.328Z,78.9
2023-01-11T19:39:05.603Z,78.9
2023-01-11T19:41:06.633Z,79.9
2023-01-11T19:43:04.113Z,78.9
2023-01-11T19:45:04.334Z,78.9
2023-01-11T19:47:11.408Z,79.6
2023-01-11T19:49:03.069Z,78.8
2023-01-11T19:51:04.080Z,78.6
2023-01-11T19:53:02.384Z,78.6
2023-01-11T19:55:02.089Z,78.6
2023-01-11T19:57:01.723Z,79.4
2023-01-11T19:59:01.497Z,78.3
2023-01-11T20:01:08.429Z,79.8
2023-01-11T20:03:00.896Z,78.8
2023-01-11T20:05:00.471Z,78.8
2023-01-11T20:07:00.117Z,78.3
2023-01-11T20:09:00.282Z,78.3
2023-01-11T20:11:04.606Z,78.4
2023-01-11T20:12:59.026Z,79.1
2023-01-11T20:14:58.839Z,77.9
2023-01-11T20:16:58.587Z,77.9
2023-01-11T20:18:58.164Z,78.5
2023-01-11T20:20:57.960Z,77.9
2023-01-11T20:22:57.541Z,77.9
2023-01-11T20:24:57.143Z,78.5
2023-01-11T20:26:59.176Z,78.5
2023-01-11T20:28:57.433Z,78.4
2023-01-11T20:30:56.328Z,77.9
2023-01-11T20:32:55.891Z,77.9
2023-01-11T20:34:55.620Z,77.8
2023-01-11T20:36:55.230Z,77.8
2023-01-11T20:38:55.820Z,77
2023-01-11T20:40:54.611Z,77.8
2023-01-11T20:42:55.314Z,77.8
2023-01-11T20:44:54.038Z,77.3
2023-01-11T20:46:55.093Z,77.3
2023-01-11T20:48:53.671Z,77.9
2023-01-11T20:50:53.032Z,77
2023-01-11T20:52:52.709Z,77.4
2023-01-11T20:54:52.394Z,76.8
2023-01-11T20:56:52.509Z,76.8
2023-01-11T20:58:51.822Z,77.4
2023-01-11T21:00:51.444Z,77.1
2023-01-11T21:02:51.216Z,77.1
2023-01-11T21:04:50.812Z,78
2023-01-11T21:06:50.514Z,78
2023-01-11T21:08:54.370Z,78
2023-01-11T21:10:49.792Z,77.9
2023-01-11T21:12:49.456Z,77.9
2023-01-11T21:14:49.061Z,77.9
2023-01-11T21:16:48.995Z,77.9
2023-01-11T21:18:52.519Z,77.3
2023-01-11T21:20:49.158Z,77.7
2023-01-11T21:22:47.792Z,77.9
2023-01-11T21:24:47.347Z,77.3
2023-01-11T21:26:47.166Z,78.3
2023-01-11T21:28:51.172Z,77.5
2023-01-11T21:30:46.497Z,77.5
2023-01-11T21:32:46.456Z,77.1
2023-01-11T21:34:45.867Z,77.1
2023-01-11T21:36:45.482Z,77.1
2023-01-11T21:38:45.386Z,77.1
2023-01-11T21:40:44.804Z,77.1
2023-01-11T21:42:44.885Z,76.8
2023-01-11T21:44:44.387Z,77
2023-01-11T21:46:45.111Z,77
2023-01-11T21:48:43.607Z,76.9
2023-01-11T21:50:44.952Z,76.9
2023-01-11T21:52:42.907Z,77.5
2023-01-11T21:54:42.535Z,77.5
2023-01-11T21:56:42.485Z,77.5
2023-01-11T21:58:42.048Z,79.4
2023-01-11T22:00:42.050Z,77.6
2023-01-11T22:02:41.426Z,77.6
2023-01-11T22:04:41.004Z,78.2
2023-01-11T22:06:42.621Z,77.5
2023-01-11T22:08:41.459Z,78.7
2023-01-11T22:10:40.095Z,77.9
2023-01-11T22:12:39.751Z,79.1
2023-01-11T22:14:39.454Z,78.1
2023-01-11T22:16:39.348Z,77.5
2023-01-11T22:18:39.914Z,77.9
2023-01-11T22:20:38.551Z,77.9
2023-01-11T22:22:38.208Z,78.5
2023-01-11T22:24:37.943Z,78.5
2023-01-11T22:26:38.073Z,78.5
2023-01-11T22:28:38.150Z,78.5
2023-01-11T22:30:37.175Z,78.5
2023-01-11T22:32:36.737Z,78.2
2023-01-11T22:34:36.500Z,79.2
2023-01-11T22:36:36.210Z,79.6
2023-01-11T22:38:35.773Z,78.8
2023-01-11T22:40:35.379Z,78.8
2023-01-11T22:42:35.376Z,80.2
2023-01-11T22:44:34.933Z,79.1
2023-01-11T22:46:34.826Z,79.1
2023-01-11T22:48:34.155Z,79.1
2023-01-11T22:50:33.832Z,79.8
2023-01-11T22:52:33.443Z,79.7
2023-01-11T22:54:33.279Z,79.7
2023-01-11T22:56:33.392Z,79.7
2023-01-11T22:58:32.681Z,79.7
2023-01-11T23:00:32.368Z,79.7
2023-01-11T23:02:31.932Z,79.7
2023-01-11T23:04:31.771Z,79.7
2023-01-11T23:06:33.023Z,80.3
2023-01-11T23:08:34.076Z,80.3
2023-01-11T23:10:30.716Z,80.7
2023-01-11T23:12:30.433Z,80.7
2023-01-11T23:14:31.065Z,80.7
2023-01-11T23:16:30.210Z,80.7
2023-01-11T23:18:29.448Z,81.3
2023-01-11T23:20:29.105Z,80.6
2023-01-11T23:22:28.752Z,80.5
2023-01-11T23:24:28.748Z,80.5
2023-01-11T23:26:28.734Z,81.6
2023-01-11T23:28:27.855Z,81.6
2023-01-11T23:30:27.517Z,81.6
2023-01-11T23:32:27.151Z,81.6
2023-01-11T23:34:26.875Z,81
2023-01-11T23:36:28.710Z,81.9
2023-01-11T23:38:26.220Z,81.9
2023-01-11T23:40:25.750Z,81.9
2023-01-11T23:42:25.558Z,81.7
2023-01-11T23:44:25.247Z,81.7
2023-01-11T23:46:25.266Z,81.7
2023-01-11T23:48:26.180Z,82.7
2023-01-11T23:50:24.322Z,82.1
2023-01-11T23:52:25.782Z,82.3
2023-01-11T23:54:26.705Z,82.3
2023-01-11T23:56:23.414Z,82.3
2023-01-11T23:58:22.935Z,82.7
